sensor_id;sensor_type;location;lat;lon;timestamp;temperature;humidity
72650;SHT31;61467;50.674;4.618;2023-10-08T00:02:23;17.51;59.27
72650;SHT31;61467;50.674;4.618;2023-10-08T00:04:52;17.67;59.19
72650;SHT31;61467;50.674;4.618;2023-10-08T00:07:20;17.41;59.66
72650;SHT31;61467;50.674;4.618;2023-10-08T00:09:50;17.60;59.33
72650;SHT31;61467;50.674;4.618;2023-10-08T00:12:18;17.55;59.50
72650;SHT31;61467;50.674;4.618;2023-10-08T00:14:46;17.43;60.15
72650;SHT31;61467;50.674;4.618;2023-10-08T00:17:15;17.54;59.61
72650;SHT31;61467;50.674;4.618;2023-10-08T00:19:43;17.40;60.09
72650;SHT31;61467;50.674;4.618;2023-10-08T00:22:10;17.52;60.07
72650;SHT31;61467;50.674;4.618;2023-10-08T00:24:39;17.61;59.68
72650;SHT31;61467;50.674;4.618;2023-10-08T00:27:09;17.61;59.95
72650;SHT31;61467;50.674;4.618;2023-10-08T00:29:40;17.64;59.80
72650;SHT31;61467;50.674;4.618;2023-10-08T00:32:08;17.68;59.84
72650;SHT31;61467;50.674;4.618;2023-10-08T00:34:39;17.47;60.57
72650;SHT31;61467;50.674;4.618;2023-10-08T00:37:09;17.64;60.28
72650;SHT31;61467;50.674;4.618;2023-10-08T00:39:36;17.67;60.33
72650;SHT31;61467;50.674;4.618;2023-10-08T00:42:05;17.70;59.92
72650;SHT31;61467;50.674;4.618;2023-10-08T00:44:35;17.51;60.87
72650;SHT31;61467;50.674;4.618;2023-10-08T00:47:07;17.44;61.03
72650;SHT31;61467;50.674;4.618;2023-10-08T00:49:36;17.40;61.17
72650;SHT31;61467;50.674;4.618;2023-10-08T00:52:20;17.13;62.02
72650;SHT31;61467;50.674;4.618;2023-10-08T00:54:56;17.21;62.30
72650;SHT31;61467;50.674;4.618;2023-10-08T00:57:34;17.40;61.81
72650;SHT31;61467;50.674;4.618;2023-10-08T01:00:05;17.31;62.17
72650;SHT31;61467;50.674;4.618;2023-10-08T01:02:41;17.35;62.07
72650;SHT31;61467;50.674;4.618;2023-10-08T01:05:20;17.33;62.30
72650;SHT31;61467;50.674;4.618;2023-10-08T01:07:53;17.33;62.45
72650;SHT31;61467;50.674;4.618;2023-10-08T01:10:21;17.03;62.70
72650;SHT31;61467;50.674;4.618;2023-10-08T01:12:50;16.92;63.64
72650;SHT31;61467;50.674;4.618;2023-10-08T01:15:34;17.10;62.84
72650;SHT31;61467;50.674;4.618;2023-10-08T01:18:03;17.14;62.76
72650;SHT31;61467;50.674;4.618;2023-10-08T01:20:32;16.93;63.52
72650;SHT31;61467;50.674;4.618;2023-10-08T01:23:06;17.00;63.13
72650;SHT31;61467;50.674;4.618;2023-10-08T01:25:39;17.10;63.14
72650;SHT31;61467;50.674;4.618;2023-10-08T01:28:07;17.09;63.15
72650;SHT31;61467;50.674;4.618;2023-10-08T01:30:41;16.90;63.71
72650;SHT31;61467;50.674;4.618;2023-10-08T01:33:12;17.07;63.29
72650;SHT31;61467;50.674;4.618;2023-10-08T01:35:41;16.77;64.00
72650;SHT31;61467;50.674;4.618;2023-10-08T01:38:09;16.73;64.43
72650;SHT31;61467;50.674;4.618;2023-10-08T01:40:40;16.86;63.77
72650;SHT31;61467;50.674;4.618;2023-10-08T01:43:07;16.66;64.47
72650;SHT31;61467;50.674;4.618;2023-10-08T01:45:38;16.96;63.50
72650;SHT31;61467;50.674;4.618;2023-10-08T01:48:08;16.92;63.56
72650;SHT31;61467;50.674;4.618;2023-10-08T01:50:36;16.90;63.75
72650;SHT31;61467;50.674;4.618;2023-10-08T01:53:04;16.96;63.67
72650;SHT31;61467;50.674;4.618;2023-10-08T01:55:36;17.02;63.74
72650;SHT31;61467;50.674;4.618;2023-10-08T01:58:15;16.92;63.80
72650;SHT31;61467;50.674;4.618;2023-10-08T02:00:44;16.90;63.89
72650;SHT31;61467;50.674;4.618;2023-10-08T02:03:12;16.77;64.30
72650;SHT31;61467;50.674;4.618;2023-10-08T02:05:41;16.79;64.27
72650;SHT31;61467;50.674;4.618;2023-10-08T02:08:08;16.59;65.00
72650;SHT31;61467;50.674;4.618;2023-10-08T02:10:38;16.63;64.95
72650;SHT31;61467;50.674;4.618;2023-10-08T02:13:05;16.87;64.50
72650;SHT31;61467;50.674;4.618;2023-10-08T02:15:34;16.89;64.39
72650;SHT31;61467;50.674;4.618;2023-10-08T02:18:02;16.71;64.68
72650;SHT31;61467;50.674;4.618;2023-10-08T02:20:30;16.56;65.45
72650;SHT31;61467;50.674;4.618;2023-10-08T02:22:57;16.71;65.10
72650;SHT31;61467;50.674;4.618;2023-10-08T02:25:25;16.68;65.28
72650;SHT31;61467;50.674;4.618;2023-10-08T02:27:53;16.61;65.43
72650;SHT31;61467;50.674;4.618;2023-10-08T02:30:20;16.59;65.71
72650;SHT31;61467;50.674;4.618;2023-10-08T02:32:47;16.65;65.66
72650;SHT31;61467;50.674;4.618;2023-10-08T02:35:15;16.69;65.49
72650;SHT31;61467;50.674;4.618;2023-10-08T02:37:42;16.68;65.76
72650;SHT31;61467;50.674;4.618;2023-10-08T02:40:11;16.69;65.74
72650;SHT31;61467;50.674;4.618;2023-10-08T02:42:45;16.68;65.67
72650;SHT31;61467;50.674;4.618;2023-10-08T02:45:14;16.55;65.92
72650;SHT31;61467;50.674;4.618;2023-10-08T02:47:42;16.73;65.71
72650;SHT31;61467;50.674;4.618;2023-10-08T02:50:11;16.63;65.85
72650;SHT31;61467;50.674;4.618;2023-10-08T02:52:42;16.68;65.97
72650;SHT31;61467;50.674;4.618;2023-10-08T02:55:11;16.69;65.75
72650;SHT31;61467;50.674;4.618;2023-10-08T02:57:49;16.52;66.36
72650;SHT31;61467;50.674;4.618;2023-10-08T03:00:19;16.47;66.68
72650;SHT31;61467;50.674;4.618;2023-10-08T03:02:46;16.48;66.92
72650;SHT31;61467;50.674;4.618;2023-10-08T03:05:13;16.40;66.85
72650;SHT31;61467;50.674;4.618;2023-10-08T03:07:42;16.45;66.72
72650;SHT31;61467;50.674;4.618;2023-10-08T03:10:10;16.45;66.82
72650;SHT31;61467;50.674;4.618;2023-10-08T03:12:44;16.47;66.86
72650;SHT31;61467;50.674;4.618;2023-10-08T03:15:14;16.44;67.17
72650;SHT31;61467;50.674;4.618;2023-10-08T03:17:56;16.53;66.67
72650;SHT31;61467;50.674;4.618;2023-10-08T03:20:34;16.55;66.68
72650;SHT31;61467;50.674;4.618;2023-10-08T03:23:08;16.44;67.16
72650;SHT31;61467;50.674;4.618;2023-10-08T03:25:38;16.48;67.19
72650;SHT31;61467;50.674;4.618;2023-10-08T03:28:08;16.56;67.10
72650;SHT31;61467;50.674;4.618;2023-10-08T03:30:38;16.36;67.43
72650;SHT31;61467;50.674;4.618;2023-10-08T03:33:16;16.53;67.23
72650;SHT31;61467;50.674;4.618;2023-10-08T03:35:48;16.51;67.20
72650;SHT31;61467;50.674;4.618;2023-10-08T03:38:18;16.44;67.36
72650;SHT31;61467;50.674;4.618;2023-10-08T03:40:54;16.41;67.47
72650;SHT31;61467;50.674;4.618;2023-10-08T03:43:27;16.32;67.84
72650;SHT31;61467;50.674;4.618;2023-10-08T03:46:07;16.24;67.95
72650;SHT31;61467;50.674;4.618;2023-10-08T03:48:42;16.32;68.02
72650;SHT31;61467;50.674;4.618;2023-10-08T03:51:11;16.35;67.93
72650;SHT31;61467;50.674;4.618;2023-10-08T03:53:38;16.29;68.04
72650;SHT31;61467;50.674;4.618;2023-10-08T03:56:24;16.35;68.04
72650;SHT31;61467;50.674;4.618;2023-10-08T03:58:51;16.36;68.04
72650;SHT31;61467;50.674;4.618;2023-10-08T04:01:20;16.31;68.08
72650;SHT31;61467;50.674;4.618;2023-10-08T04:03:50;16.31;68.05
72650;SHT31;61467;50.674;4.618;2023-10-08T04:06:27;16.29;68.31
72650;SHT31;61467;50.674;4.618;2023-10-08T04:09:04;16.25;68.26
72650;SHT31;61467;50.674;4.618;2023-10-08T04:11:42;16.25;68.39
72650;SHT31;61467;50.674;4.618;2023-10-08T04:14:24;16.32;68.16
72650;SHT31;61467;50.674;4.618;2023-10-08T04:16:53;16.29;68.21
72650;SHT31;61467;50.674;4.618;2023-10-08T04:19:22;16.31;68.13
72650;SHT31;61467;50.674;4.618;2023-10-08T04:21:52;16.29;68.32
72650;SHT31;61467;50.674;4.618;2023-10-08T04:24:22;16.22;68.43
72650;SHT31;61467;50.674;4.618;2023-10-08T04:26:57;16.14;68.87
72650;SHT31;61467;50.674;4.618;2023-10-08T04:29:24;16.22;68.72
72650;SHT31;61467;50.674;4.618;2023-10-08T04:31:51;16.20;68.89
72650;SHT31;61467;50.674;4.618;2023-10-08T04:34:28;16.22;68.71
72650;SHT31;61467;50.674;4.618;2023-10-08T04:36:55;16.21;68.94
72650;SHT31;61467;50.674;4.618;2023-10-08T04:39:27;16.12;68.98
72650;SHT31;61467;50.674;4.618;2023-10-08T04:41:58;16.14;69.04
72650;SHT31;61467;50.674;4.618;2023-10-08T04:44:31;16.14;69.04
72650;SHT31;61467;50.674;4.618;2023-10-08T04:46:59;16.17;69.02
72650;SHT31;61467;50.674;4.618;2023-10-08T04:49:32;16.04;69.32
72650;SHT31;61467;50.674;4.618;2023-10-08T04:52:00;16.11;69.44
72650;SHT31;61467;50.674;4.618;2023-10-08T04:54:30;16.05;69.43
72650;SHT31;61467;50.674;4.618;2023-10-08T04:56:58;16.08;69.57
72650;SHT31;61467;50.674;4.618;2023-10-08T04:59:26;16.08;69.65
72650;SHT31;61467;50.674;4.618;2023-10-08T05:02:00;16.03;69.68
72650;SHT31;61467;50.674;4.618;2023-10-08T05:04:47;15.98;69.76
72650;SHT31;61467;50.674;4.618;2023-10-08T05:07:33;16.03;69.75
72650;SHT31;61467;50.674;4.618;2023-10-08T05:10:22;16.00;69.86
72650;SHT31;61467;50.674;4.618;2023-10-08T05:13:19;16.04;69.78
72650;SHT31;61467;50.674;4.618;2023-10-08T05:15:56;16.01;69.81
72650;SHT31;61467;50.674;4.618;2023-10-08T05:18:37;15.98;69.88
72650;SHT31;61467;50.674;4.618;2023-10-08T05:21:37;16.03;70.03
72650;SHT31;61467;50.674;4.618;2023-10-08T05:24:18;16.03;69.89
72650;SHT31;61467;50.674;4.618;2023-10-08T05:26:53;16.03;70.01
72650;SHT31;61467;50.674;4.618;2023-10-08T05:29:40;16.01;69.87
72650;SHT31;61467;50.674;4.618;2023-10-08T05:32:18;15.98;69.92
72650;SHT31;61467;50.674;4.618;2023-10-08T05:35:05;15.98;70.11
72650;SHT31;61467;50.674;4.618;2023-10-08T05:37:51;15.98;70.07
72650;SHT31;61467;50.674;4.618;2023-10-08T05:40:38;15.97;70.19
72650;SHT31;61467;50.674;4.618;2023-10-08T05:43:30;15.90;70.37
72650;SHT31;61467;50.674;4.618;2023-10-08T05:46:15;15.90;70.24
72650;SHT31;61467;50.674;4.618;2023-10-08T05:49:00;15.93;70.37
72650;SHT31;61467;50.674;4.618;2023-10-08T05:51:28;15.87;70.35
72650;SHT31;61467;50.674;4.618;2023-10-08T05:54:11;15.84;70.59
72650;SHT31;61467;50.674;4.618;2023-10-08T05:56:51;15.84;70.38
72650;SHT31;61467;50.674;4.618;2023-10-08T05:59:32;15.81;70.47
72650;SHT31;61467;50.674;4.618;2023-10-08T06:02:05;15.77;70.63
72650;SHT31;61467;50.674;4.618;2023-10-08T06:04:51;15.73;70.94
72650;SHT31;61467;50.674;4.618;2023-10-08T06:07:36;15.73;71.11
72650;SHT31;61467;50.674;4.618;2023-10-08T06:10:15;15.73;71.00
72650;SHT31;61467;50.674;4.618;2023-10-08T06:13:09;15.70;70.94
72650;SHT31;61467;50.674;4.618;2023-10-08T06:15:39;15.71;71.11
72650;SHT31;61467;50.674;4.618;2023-10-08T06:18:14;15.69;71.22
72650;SHT31;61467;50.674;4.618;2023-10-08T06:20:41;15.67;71.17
72650;SHT31;61467;50.674;4.618;2023-10-08T06:23:09;15.77;71.05
72650;SHT31;61467;50.674;4.618;2023-10-08T06:25:39;15.70;71.42
72650;SHT31;61467;50.674;4.618;2023-10-08T06:28:15;15.67;71.21
72650;SHT31;61467;50.674;4.618;2023-10-08T06:30:44;15.81;70.93
72650;SHT31;61467;50.674;4.618;2023-10-08T06:33:11;15.89;70.94
72650;SHT31;61467;50.674;4.618;2023-10-08T06:35:38;15.91;70.91
72650;SHT31;61467;50.674;4.618;2023-10-08T06:38:10;15.91;71.01
72650;SHT31;61467;50.674;4.618;2023-10-08T06:40:38;15.86;71.03
72650;SHT31;61467;50.674;4.618;2023-10-08T06:43:07;15.97;70.85
72650;SHT31;61467;50.674;4.618;2023-10-08T06:45:50;15.91;70.96
72650;SHT31;61467;50.674;4.618;2023-10-08T06:48:19;16.01;70.94
72650;SHT31;61467;50.674;4.618;2023-10-08T06:50:47;16.03;70.92
72650;SHT31;61467;50.674;4.618;2023-10-08T06:53:14;16.14;70.80
72650;SHT31;61467;50.674;4.618;2023-10-08T06:55:45;16.18;70.66
72650;SHT31;61467;50.674;4.618;2023-10-08T06:58:13;16.15;70.56
72650;SHT31;61467;50.674;4.618;2023-10-08T07:00:41;16.18;70.61
72650;SHT31;61467;50.674;4.618;2023-10-08T07:03:14;16.24;70.60
72650;SHT31;61467;50.674;4.618;2023-10-08T07:05:44;16.22;70.74
72650;SHT31;61467;50.674;4.618;2023-10-08T07:08:20;16.36;70.18
72650;SHT31;61467;50.674;4.618;2023-10-08T07:10:50;16.28;70.21
72650;SHT31;61467;50.674;4.618;2023-10-08T07:13:17;16.34;70.41
72650;SHT31;61467;50.674;4.618;2023-10-08T07:15:48;16.40;70.21
72650;SHT31;61467;50.674;4.618;2023-10-08T07:18:15;16.53;70.06
72650;SHT31;61467;50.674;4.618;2023-10-08T07:20:50;16.42;70.05
72650;SHT31;61467;50.674;4.618;2023-10-08T07:23:19;16.49;69.89
72650;SHT31;61467;50.674;4.618;2023-10-08T07:25:56;16.48;70.07
72650;SHT31;61467;50.674;4.618;2023-10-08T07:28:27;16.40;70.41
72650;SHT31;61467;50.674;4.618;2023-10-08T07:30:55;16.51;70.48
72650;SHT31;61467;50.674;4.618;2023-10-08T07:33:23;16.52;69.99
72650;SHT31;61467;50.674;4.618;2023-10-08T07:35:51;16.65;70.29
72650;SHT31;61467;50.674;4.618;2023-10-08T07:38:25;16.79;69.70
72650;SHT31;61467;50.674;4.618;2023-10-08T07:40:55;16.71;69.97
72650;SHT31;61467;50.674;4.618;2023-10-08T07:43:22;16.87;69.73
72650;SHT31;61467;50.674;4.618;2023-10-08T07:45:50;16.86;69.48
72650;SHT31;61467;50.674;4.618;2023-10-08T07:48:19;17.00;69.29
72650;SHT31;61467;50.674;4.618;2023-10-08T07:50:48;16.93;69.38
72650;SHT31;61467;50.674;4.618;2023-10-08T07:53:16;17.13;68.81
72650;SHT31;61467;50.674;4.618;2023-10-08T07:55:45;17.10;69.24
72650;SHT31;61467;50.674;4.618;2023-10-08T07:58:15;17.20;68.97
72650;SHT31;61467;50.674;4.618;2023-10-08T08:00:43;17.20;69.70
72650;SHT31;61467;50.674;4.618;2023-10-08T08:03:20;17.23;69.33
72650;SHT31;61467;50.674;4.618;2023-10-08T08:05:47;17.35;69.07
72650;SHT31;61467;50.674;4.618;2023-10-08T08:08:19;17.31;69.19
72650;SHT31;61467;50.674;4.618;2023-10-08T08:10:48;17.37;68.96
72650;SHT31;61467;50.674;4.618;2023-10-08T08:13:17;17.26;69.37
72650;SHT31;61467;50.674;4.618;2023-10-08T08:15:47;17.24;69.11
72650;SHT31;61467;50.674;4.618;2023-10-08T08:18:16;17.34;68.92
72650;SHT31;61467;50.674;4.618;2023-10-08T08:20:48;17.30;69.26
72650;SHT31;61467;50.674;4.618;2023-10-08T08:23:15;17.44;68.94
72650;SHT31;61467;50.674;4.618;2023-10-08T08:25:43;17.61;68.84
72650;SHT31;61467;50.674;4.618;2023-10-08T08:28:22;17.79;68.86
72650;SHT31;61467;50.674;4.618;2023-10-08T08:30:51;17.89;68.38
72650;SHT31;61467;50.674;4.618;2023-10-08T08:33:20;17.68;68.68
72650;SHT31;61467;50.674;4.618;2023-10-08T08:35:57;17.71;69.12
72650;SHT31;61467;50.674;4.618;2023-10-08T08:38:25;17.72;69.09
72650;SHT31;61467;50.674;4.618;2023-10-08T08:41:01;17.70;69.40
72650;SHT31;61467;50.674;4.618;2023-10-08T08:43:34;17.78;68.97
72650;SHT31;61467;50.674;4.618;2023-10-08T08:46:02;18.02;68.54
72650;SHT31;61467;50.674;4.618;2023-10-08T08:48:32;18.01;68.77
72650;SHT31;61467;50.674;4.618;2023-10-08T08:51:00;18.13;68.56
72650;SHT31;61467;50.674;4.618;2023-10-08T08:53:27;18.05;68.82
72650;SHT31;61467;50.674;4.618;2023-10-08T08:55:55;18.16;68.70
72650;SHT31;61467;50.674;4.618;2023-10-08T08:58:22;18.19;68.88
72650;SHT31;61467;50.674;4.618;2023-10-08T09:00:53;18.26;69.20
72650;SHT31;61467;50.674;4.618;2023-10-08T09:03:21;18.30;69.00
72650;SHT31;61467;50.674;4.618;2023-10-08T09:05:56;18.36;68.80
72650;SHT31;61467;50.674;4.618;2023-10-08T09:08:23;18.60;68.36
72650;SHT31;61467;50.674;4.618;2023-10-08T09:10:57;18.74;67.86
72650;SHT31;61467;50.674;4.618;2023-10-08T09:13:27;18.59;68.58
72650;SHT31;61467;50.674;4.618;2023-10-08T09:16:02;18.57;68.70
72650;SHT31;61467;50.674;4.618;2023-10-08T09:18:30;18.67;68.94
72650;SHT31;61467;50.674;4.618;2023-10-08T09:21:07;18.74;69.00
72650;SHT31;61467;50.674;4.618;2023-10-08T09:23:39;18.65;69.25
72650;SHT31;61467;50.674;4.618;2023-10-08T09:26:08;18.92;68.74
72650;SHT31;61467;50.674;4.618;2023-10-08T09:28:37;19.12;67.86
72650;SHT31;61467;50.674;4.618;2023-10-08T09:31:05;19.39;67.62
72650;SHT31;61467;50.674;4.618;2023-10-08T09:33:32;19.46;67.35
72650;SHT31;61467;50.674;4.618;2023-10-08T09:35:59;19.32;68.59
72650;SHT31;61467;50.674;4.618;2023-10-08T09:38:30;19.42;67.73
72650;SHT31;61467;50.674;4.618;2023-10-08T09:40:59;19.66;67.02
72650;SHT31;61467;50.674;4.618;2023-10-08T09:43:28;19.80;67.22
72650;SHT31;61467;50.674;4.618;2023-10-08T09:46:00;19.84;67.44
72650;SHT31;61467;50.674;4.618;2023-10-08T09:48:37;19.90;67.28
72650;SHT31;61467;50.674;4.618;2023-10-08T09:51:05;19.80;68.34
72650;SHT31;61467;50.674;4.618;2023-10-08T09:53:42;20.01;68.08
72650;SHT31;61467;50.674;4.618;2023-10-08T09:56:14;20.18;66.90
72650;SHT31;61467;50.674;4.618;2023-10-08T09:58:42;20.21;66.66
72650;SHT31;61467;50.674;4.618;2023-10-08T10:01:10;20.20;66.24
72650;SHT31;61467;50.674;4.618;2023-10-08T10:03:38;20.28;65.66
72650;SHT31;61467;50.674;4.618;2023-10-08T10:06:12;20.40;65.44
72650;SHT31;61467;50.674;4.618;2023-10-08T10:08:47;20.40;65.77
72650;SHT31;61467;50.674;4.618;2023-10-08T10:11:15;20.51;66.06
72650;SHT31;61467;50.674;4.618;2023-10-08T10:13:43;20.58;66.38
72650;SHT31;61467;50.674;4.618;2023-10-08T10:16:13;20.44;67.11
72650;SHT31;61467;50.674;4.618;2023-10-08T10:18:45;20.59;66.70
72650;SHT31;61467;50.674;4.618;2023-10-08T10:21:31;20.65;66.43
72650;SHT31;61467;50.674;4.618;2023-10-08T10:23:59;20.59;66.10
72650;SHT31;61467;50.674;4.618;2023-10-08T10:26:29;20.62;66.49
72650;SHT31;61467;50.674;4.618;2023-10-08T10:29:21;20.52;67.32
72650;SHT31;61467;50.674;4.618;2023-10-08T10:31:58;20.75;66.39
72650;SHT31;61467;50.674;4.618;2023-10-08T10:34:27;20.81;66.44
72650;SHT31;61467;50.674;4.618;2023-10-08T10:36:56;21.07;64.80
72650;SHT31;61467;50.674;4.618;2023-10-08T10:39:28;21.02;66.41
72650;SHT31;61467;50.674;4.618;2023-10-08T10:41:58;21.19;65.87
72650;SHT31;61467;50.674;4.618;2023-10-08T10:44:27;21.30;65.87
72650;SHT31;61467;50.674;4.618;2023-10-08T10:46:55;21.51;65.50
72650;SHT31;61467;50.674;4.618;2023-10-08T10:49:49;21.75;62.88
72650;SHT31;61467;50.674;4.618;2023-10-08T10:52:20;21.81;63.63
72650;SHT31;61467;50.674;4.618;2023-10-08T10:54:59;21.53;64.23
72650;SHT31;61467;50.674;4.618;2023-10-08T10:57:43;21.64;64.65
72650;SHT31;61467;50.674;4.618;2023-10-08T11:00:19;21.88;63.65
72650;SHT31;61467;50.674;4.618;2023-10-08T11:03:13;22.06;63.25
72650;SHT31;61467;50.674;4.618;2023-10-08T11:05:45;22.16;62.92
72650;SHT31;61467;50.674;4.618;2023-10-08T11:08:17;22.22;62.65
72650;SHT31;61467;50.674;4.618;2023-10-08T11:10:47;22.26;62.42
72650;SHT31;61467;50.674;4.618;2023-10-08T11:13:17;22.29;62.00
72650;SHT31;61467;50.674;4.618;2023-10-08T11:15:45;22.33;61.86
72650;SHT31;61467;50.674;4.618;2023-10-08T11:18:16;22.36;61.80
72650;SHT31;61467;50.674;4.618;2023-10-08T11:20:46;22.36;61.23
72650;SHT31;61467;50.674;4.618;2023-10-08T11:23:31;22.48;61.51
72650;SHT31;61467;50.674;4.618;2023-10-08T11:25:59;22.63;60.92
72650;SHT31;61467;50.674;4.618;2023-10-08T11:28:28;22.73;60.40
72650;SHT31;61467;50.674;4.618;2023-10-08T11:30:55;22.79;60.46
72650;SHT31;61467;50.674;4.618;2023-10-08T11:33:29;22.80;60.24
72650;SHT31;61467;50.674;4.618;2023-10-08T11:35:58;22.81;60.45
72650;SHT31;61467;50.674;4.618;2023-10-08T11:38:27;22.96;60.09
72650;SHT31;61467;50.674;4.618;2023-10-08T11:40:54;22.90;60.02
72650;SHT31;61467;50.674;4.618;2023-10-08T11:43:23;23.10;59.42
72650;SHT31;61467;50.674;4.618;2023-10-08T11:45:51;23.25;58.92
72650;SHT31;61467;50.674;4.618;2023-10-08T11:48:18;23.18;59.38
72650;SHT31;61467;50.674;4.618;2023-10-08T11:50:53;23.35;58.78
72650;SHT31;61467;50.674;4.618;2023-10-08T11:53:24;23.51;57.61
72650;SHT31;61467;50.674;4.618;2023-10-08T11:55:51;23.48;57.58
72650;SHT31;61467;50.674;4.618;2023-10-08T11:58:22;23.59;57.73
72650;SHT31;61467;50.674;4.618;2023-10-08T12:01:02;23.39;57.80
72650;SHT31;61467;50.674;4.618;2023-10-08T12:03:30;23.58;56.84
72650;SHT31;61467;50.674;4.618;2023-10-08T12:05:57;23.62;56.77
72650;SHT31;61467;50.674;4.618;2023-10-08T12:08:27;23.70;56.68
72650;SHT31;61467;50.674;4.618;2023-10-08T12:10:55;23.66;56.53
72650;SHT31;61467;50.674;4.618;2023-10-08T12:13:22;23.80;56.05
72650;SHT31;61467;50.674;4.618;2023-10-08T12:15:51;23.86;56.04
72650;SHT31;61467;50.674;4.618;2023-10-08T12:18:22;24.05;55.00
72650;SHT31;61467;50.674;4.618;2023-10-08T12:20:51;23.95;55.43
72650;SHT31;61467;50.674;4.618;2023-10-08T12:23:19;24.06;54.80
72650;SHT31;61467;50.674;4.618;2023-10-08T12:25:52;24.13;54.75
72650;SHT31;61467;50.674;4.618;2023-10-08T12:28:21;24.37;54.36
72650;SHT31;61467;50.674;4.618;2023-10-08T12:30:49;24.31;54.31
72650;SHT31;61467;50.674;4.618;2023-10-08T12:33:18;24.46;54.42
72650;SHT31;61467;50.674;4.618;2023-10-08T12:35:45;24.48;54.12
72650;SHT31;61467;50.674;4.618;2023-10-08T12:38:13;24.54;53.85
72650;SHT31;61467;50.674;4.618;2023-10-08T12:40:39;24.60;53.68
72650;SHT31;61467;50.674;4.618;2023-10-08T12:43:19;24.56;53.00
72650;SHT31;61467;50.674;4.618;2023-10-08T12:45:47;24.67;51.65
72650;SHT31;61467;50.674;4.618;2023-10-08T12:48:19;24.58;52.25
72650;SHT31;61467;50.674;4.618;2023-10-08T12:50:46;24.51;52.81
72650;SHT31;61467;50.674;4.618;2023-10-08T12:53:20;24.69;53.12
72650;SHT31;61467;50.674;4.618;2023-10-08T12:55:50;24.77;52.93
72650;SHT31;61467;50.674;4.618;2023-10-08T12:58:21;24.85;51.95
72650;SHT31;61467;50.674;4.618;2023-10-08T13:00:52;25.02;51.82
72650;SHT31;61467;50.674;4.618;2023-10-08T13:03:24;24.95;52.27
72650;SHT31;61467;50.674;4.618;2023-10-08T13:05:51;25.06;51.16
72650;SHT31;61467;50.674;4.618;2023-10-08T13:08:19;25.01;52.02
72650;SHT31;61467;50.674;4.618;2023-10-08T13:10:46;25.15;51.32
72650;SHT31;61467;50.674;4.618;2023-10-08T13:13:13;25.16;51.32
72650;SHT31;61467;50.674;4.618;2023-10-08T13:15:42;24.95;52.12
72650;SHT31;61467;50.674;4.618;2023-10-08T13:18:09;25.20;51.77
72650;SHT31;61467;50.674;4.618;2023-10-08T13:20:36;25.20;51.09
72650;SHT31;61467;50.674;4.618;2023-10-08T13:23:06;25.32;51.58
72650;SHT31;61467;50.674;4.618;2023-10-08T13:25:33;25.47;50.65
72650;SHT31;61467;50.674;4.618;2023-10-08T13:28:05;25.62;50.74
72650;SHT31;61467;50.674;4.618;2023-10-08T13:30:32;25.59;49.60
72650;SHT31;61467;50.674;4.618;2023-10-08T13:33:01;25.70;50.72
72650;SHT31;61467;50.674;4.618;2023-10-08T13:35:27;25.59;50.40
72650;SHT31;61467;50.674;4.618;2023-10-08T13:37:54;25.77;50.34
72650;SHT31;61467;50.674;4.618;2023-10-08T13:40:21;25.90;50.05
72650;SHT31;61467;50.674;4.618;2023-10-08T13:42:58;25.90;49.45
72650;SHT31;61467;50.674;4.618;2023-10-08T13:45:25;25.81;49.44
72650;SHT31;61467;50.674;4.618;2023-10-08T13:47:55;25.65;49.84
72650;SHT31;61467;50.674;4.618;2023-10-08T13:50:26;25.76;49.93
72650;SHT31;61467;50.674;4.618;2023-10-08T13:52:55;25.53;49.82
72650;SHT31;61467;50.674;4.618;2023-10-08T13:55:22;25.50;49.44
72650;SHT31;61467;50.674;4.618;2023-10-08T13:57:50;25.42;48.99
72650;SHT31;61467;50.674;4.618;2023-10-08T14:00:17;25.53;49.62
72650;SHT31;61467;50.674;4.618;2023-10-08T14:02:51;25.54;49.16
72650;SHT31;61467;50.674;4.618;2023-10-08T14:05:18;25.69;48.70
72650;SHT31;61467;50.674;4.618;2023-10-08T14:07:50;25.63;49.29
72650;SHT31;61467;50.674;4.618;2023-10-08T14:10:18;25.53;49.39
72650;SHT31;61467;50.674;4.618;2023-10-08T14:12:45;25.53;49.31
72650;SHT31;61467;50.674;4.618;2023-10-08T14:15:15;25.51;49.47
72650;SHT31;61467;50.674;4.618;2023-10-08T14:17:45;25.23;50.75
72650;SHT31;61467;50.674;4.618;2023-10-08T14:20:14;24.85;49.54
72650;SHT31;61467;50.674;4.618;2023-10-08T14:22:49;25.05;50.62
72650;SHT31;61467;50.674;4.618;2023-10-08T14:25:26;25.08;50.11
72650;SHT31;61467;50.674;4.618;2023-10-08T14:27:53;24.88;50.35
72650;SHT31;61467;50.674;4.618;2023-10-08T14:30:30;24.96;51.39
72650;SHT31;61467;50.674;4.618;2023-10-08T14:32:58;24.99;51.39
72650;SHT31;61467;50.674;4.618;2023-10-08T14:35:26;24.94;51.12
72650;SHT31;61467;50.674;4.618;2023-10-08T14:38:10;24.84;51.72
72650;SHT31;61467;50.674;4.618;2023-10-08T14:40:56;24.68;51.58
72650;SHT31;61467;50.674;4.618;2023-10-08T14:43:40;24.48;52.11
72650;SHT31;61467;50.674;4.618;2023-10-08T14:46:08;24.34;52.39
72650;SHT31;61467;50.674;4.618;2023-10-08T14:48:36;24.31;52.60
72650;SHT31;61467;50.674;4.618;2023-10-08T14:51:06;24.34;52.68
72650;SHT31;61467;50.674;4.618;2023-10-08T14:53:33;24.13;52.38
72650;SHT31;61467;50.674;4.618;2023-10-08T14:56:05;24.17;52.57
72650;SHT31;61467;50.674;4.618;2023-10-08T14:58:32;24.17;53.03
72650;SHT31;61467;50.674;4.618;2023-10-08T15:00:59;24.00;52.68
72650;SHT31;61467;50.674;4.618;2023-10-08T15:03:26;24.00;52.89
72650;SHT31;61467;50.674;4.618;2023-10-08T15:05:54;23.93;52.99
72650;SHT31;61467;50.674;4.618;2023-10-08T15:08:22;23.88;53.38
72650;SHT31;61467;50.674;4.618;2023-10-08T15:10:49;23.96;53.28
72650;SHT31;61467;50.674;4.618;2023-10-08T15:13:17;24.02;53.14
72650;SHT31;61467;50.674;4.618;2023-10-08T15:15:44;23.95;53.57
72650;SHT31;61467;50.674;4.618;2023-10-08T15:18:11;23.89;53.80
72650;SHT31;61467;50.674;4.618;2023-10-08T15:20:39;23.99;53.81
72650;SHT31;61467;50.674;4.618;2023-10-08T15:23:06;23.86;54.20
72650;SHT31;61467;50.674;4.618;2023-10-08T15:25:37;23.83;54.50
72650;SHT31;61467;50.674;4.618;2023-10-08T15:28:05;23.92;54.55
72650;SHT31;61467;50.674;4.618;2023-10-08T15:30:34;23.89;54.76
72650;SHT31;61467;50.674;4.618;2023-10-08T15:33:02;23.73;55.30
72650;SHT31;61467;50.674;4.618;2023-10-08T15:35:29;23.69;55.49
72650;SHT31;61467;50.674;4.618;2023-10-08T15:37:56;23.69;55.55
72650;SHT31;61467;50.674;4.618;2023-10-08T15:40:23;23.68;55.49
72650;SHT31;61467;50.674;4.618;2023-10-08T15:42:50;23.57;56.03
72650;SHT31;61467;50.674;4.618;2023-10-08T15:45:18;23.68;55.88
72650;SHT31;61467;50.674;4.618;2023-10-08T15:47:46;23.66;55.85
72650;SHT31;61467;50.674;4.618;2023-10-08T15:50:14;23.63;56.11
72650;SHT31;61467;50.674;4.618;2023-10-08T15:52:42;23.70;56.15
72650;SHT31;61467;50.674;4.618;2023-10-08T15:55:09;23.76;56.04
72650;SHT31;61467;50.674;4.618;2023-10-08T15:57:36;23.69;56.48